createdAt,value
2022-12-19T00:01:35.949Z,4.60
2022-12-19T00:04:08.313Z,4.60
2022-12-19T00:06:39.504Z,4.65
2022-12-19T00:09:13.091Z,4.67
2022-12-19T00:11:41.701Z,4.69
2022-12-19T00:14:12.881Z,4.72
2022-12-19T00:16:42.407Z,4.72
2022-12-19T00:19:11.961Z,4.75
2022-12-19T00:21:39.971Z,4.75
2022-12-19T00:24:20.742Z,4.77
2022-12-19T00:26:50.126Z,4.78
2022-12-19T00:29:18.038Z,4.81
2022-12-19T00:31:46.583Z,4.84
2022-12-19T00:34:15.794Z,4.82
2022-12-19T00:36:43.711Z,4.88
2022-12-19T00:39:11.813Z,4.90
2022-12-19T00:41:42.178Z,4.93
2022-12-19T00:44:14.782Z,4.97
2022-12-19T00:46:43.020Z,4.96
2022-12-19T00:49:15.311Z,4.98
2022-12-19T00:51:43.199Z,4.98
2022-12-19T00:54:11.185Z,4.99
2022-12-19T00:56:39.841Z,5.02
2022-12-19T00:59:09.137Z,5.03
2022-12-19T01:01:41.001Z,5.05
2022-12-19T01:04:30.695Z,5.09
2022-12-19T01:07:01.981Z,5.05
2022-12-19T01:09:35.526Z,5.09
2022-12-19T01:12:25.143Z,5.08
2022-12-19T01:15:04.317Z,5.06
2022-12-19T01:17:43.712Z,5.08
2022-12-19T01:20:28.981Z,5.08
2022-12-19T01:23:00.157Z,5.07
2022-12-19T01:25:29.318Z,5.09
2022-12-19T01:27:58.258Z,5.13
2022-12-19T01:30:29.253Z,5.20
2022-12-19T01:33:00.496Z,5.26
2022-12-19T01:35:28.709Z,5.31
2022-12-19T01:38:07.660Z,5.34
2022-12-19T01:40:37.378Z,5.38
2022-12-19T01:43:06.527Z,5.40
2022-12-19T01:45:43.658Z,5.45
2022-12-19T01:48:21.614Z,5.51
2022-12-19T01:51:02.821Z,5.53
2022-12-19T01:53:39.023Z,5.57
2022-12-19T01:56:22.941Z,5.57
2022-12-19T01:58:57.423Z,5.55
2022-12-19T02:01:51.658Z,5.59
2022-12-19T02:04:27.115Z,5.60
2022-12-19T02:07:10.917Z,5.62
2022-12-19T02:09:47.582Z,5.63
2022-12-19T02:12:24.627Z,5.63
2022-12-19T02:14:54.889Z,5.64
2022-12-19T02:17:32.373Z,5.65
2022-12-19T02:20:50.487Z,5.65
2022-12-19T02:23:42.275Z,5.61
2022-12-19T02:26:34.192Z,5.63
2022-12-19T02:29:23.793Z,5.48
2022-12-19T02:32:04.648Z,5.57
2022-12-19T02:35:05.352Z,5.47
2022-12-19T02:37:43.177Z,5.54
2022-12-19T02:40:33.108Z,5.62
2022-12-19T02:43:03.130Z,5.66
2022-12-19T02:45:37.042Z,5.70
2022-12-19T02:48:09.049Z,5.72
2022-12-19T02:50:41.576Z,5.74
2022-12-19T02:53:15.381Z,5.77
2022-12-19T02:56:17.341Z,5.79
2022-12-19T02:59:16.714Z,5.78
2022-12-19T03:02:04.262Z,5.78
2022-12-19T03:04:49.386Z,5.79
2022-12-19T03:07:49.095Z,5.82
2022-12-19T03:10:41.338Z,5.81
2022-12-19T03:13:17.449Z,5.76
2022-12-19T03:15:46.799Z,5.81
2022-12-19T03:18:15.132Z,5.84
2022-12-19T03:20:53.166Z,5.89
2022-12-19T03:23:21.455Z,5.89
2022-12-19T03:25:54.154Z,5.93
2022-12-19T03:28:36.499Z,5.97
2022-12-19T03:31:05.776Z,5.98
2022-12-19T03:33:35.531Z,6.01
2022-12-19T03:36:09.855Z,6.01
2022-12-19T03:38:40.621Z,6.04
2022-12-19T03:41:13.114Z,6.10
2022-12-19T03:43:45.367Z,6.12
2022-12-19T03:46:26.078Z,6.15
2022-12-19T03:48:55.439Z,6.13
2022-12-19T03:51:45.280Z,6.17
2022-12-19T03:54:30.994Z,6.17
2022-12-19T03:57:08.459Z,6.19
2022-12-19T04:00:08.858Z,6.22
2022-12-19T04:02:48.871Z,6.18
2022-12-19T04:05:24.372Z,6.20
2022-12-19T04:07:56.686Z,6.20
2022-12-19T04:10:28.318Z,6.24
2022-12-19T04:13:15.906Z,6.08
2022-12-19T04:16:10.983Z,6.18
2022-12-19T04:18:43.582Z,6.19
2022-12-19T04:21:25.900Z,6.18
2022-12-19T04:24:00.660Z,6.25
2022-12-19T04:26:30.453Z,6.24
2022-12-19T04:29:02.487Z,6.28
2022-12-19T04:31:31.383Z,6.29
2022-12-19T04:33:59.353Z,6.29
2022-12-19T04:36:27.401Z,6.31
2022-12-19T04:38:55.136Z,6.32
2022-12-19T04:41:42.747Z,6.32
2022-12-19T04:44:10.555Z,6.33
2022-12-19T04:46:44.025Z,6.34
2022-12-19T04:49:31.748Z,6.35
2022-12-19T04:51:59.403Z,6.35
2022-12-19T04:54:27.670Z,6.36
2022-12-19T04:56:55.773Z,6.37
2022-12-19T04:59:23.714Z,6.37
2022-12-19T05:01:51.532Z,6.39
2022-12-19T05:04:19.459Z,6.38
2022-12-19T05:06:47.127Z,6.37
2022-12-19T05:09:14.924Z,6.34
2022-12-19T05:11:42.799Z,6.32
2022-12-19T05:14:10.942Z,6.32
2022-12-19T05:16:38.777Z,6.29
2022-12-19T05:19:06.534Z,6.27
2022-12-19T05:21:34.260Z,6.25
2022-12-19T05:24:01.888Z,6.25
2022-12-19T05:26:29.597Z,6.25
2022-12-19T05:28:57.314Z,6.27
2022-12-19T05:31:25.132Z,6.28
2022-12-19T05:33:52.790Z,6.26
2022-12-19T05:36:20.549Z,6.27
2022-12-19T05:38:48.400Z,6.26
2022-12-19T05:41:19.599Z,6.32
2022-12-19T05:43:55.389Z,6.36
2022-12-19T05:46:24.838Z,6.41
2022-12-19T05:48:53.713Z,6.42
2022-12-19T05:51:22.217Z,6.42
2022-12-19T05:53:50.037Z,6.41
2022-12-19T05:56:21.383Z,6.44
2022-12-19T05:58:50.101Z,6.42
2022-12-19T06:01:26.397Z,6.45
2022-12-19T06:03:55.350Z,6.43
2022-12-19T06:06:26.121Z,6.46
2022-12-19T06:08:56.058Z,6.52
2022-12-19T06:11:24.492Z,6.51
2022-12-19T06:13:52.572Z,6.56
2022-12-19T06:16:22.402Z,6.54
2022-12-19T06:18:50.695Z,6.57
2022-12-19T06:21:21.839Z,6.61
2022-12-19T06:23:50.728Z,6.61
2022-12-19T06:26:20.668Z,6.60
2022-12-19T06:28:50.252Z,6.65
2022-12-19T06:31:20.497Z,6.67
2022-12-19T06:33:48.687Z,6.69
2022-12-19T06:36:30.385Z,6.73
2022-12-19T06:38:58.415Z,6.56
2022-12-19T06:41:45.518Z,6.65
2022-12-19T06:44:16.410Z,6.66
2022-12-19T06:46:44.803Z,6.64
2022-12-19T06:49:12.920Z,6.62
2022-12-19T06:51:41.773Z,6.63
2022-12-19T06:54:14.392Z,6.64
2022-12-19T06:56:44.228Z,6.60
2022-12-19T06:59:15.750Z,6.57
2022-12-19T07:01:59.463Z,6.58
2022-12-19T07:04:34.071Z,6.55
2022-12-19T07:07:01.860Z,6.57
2022-12-19T07:09:30.458Z,6.64
2022-12-19T07:11:58.210Z,6.66
2022-12-19T07:14:25.979Z,6.68
2022-12-19T07:16:54.811Z,6.75
2022-12-19T07:19:23.162Z,6.80
2022-12-19T07:21:51.095Z,6.79
2022-12-19T07:24:18.978Z,6.82
2022-12-19T07:26:46.865Z,6.85
2022-12-19T07:29:14.734Z,6.90
2022-12-19T07:31:42.597Z,6.91
2022-12-19T07:34:10.336Z,6.94
2022-12-19T07:36:38.041Z,6.96
2022-12-19T07:39:06.309Z,6.98
2022-12-19T07:41:37.447Z,6.99
2022-12-19T07:44:07.065Z,7.01
2022-12-19T07:46:35.228Z,6.97
2022-12-19T07:49:02.959Z,7.01
2022-12-19T07:51:30.765Z,7.00
2022-12-19T07:53:58.826Z,7.00
2022-12-19T07:56:27.963Z,6.98
2022-12-19T07:58:55.998Z,7.00
2022-12-19T08:01:24.040Z,7.00
2022-12-19T08:03:57.195Z,6.97
2022-12-19T08:06:26.039Z,6.93
2022-12-19T08:08:54.321Z,6.95
2022-12-19T08:11:27.171Z,7.05
2022-12-19T08:13:55.533Z,7.07
2022-12-19T08:16:27.213Z,7.10
2022-12-19T08:18:58.558Z,7.15
2022-12-19T08:21:26.533Z,7.20
2022-12-19T08:23:54.608Z,7.24
2022-12-19T08:26:26.089Z,7.30
2022-12-19T08:28:57.227Z,7.28
2022-12-19T08:31:28.209Z,7.28
2022-12-19T08:33:58.097Z,7.21
2022-12-19T08:36:26.625Z,7.18
2022-12-19T08:38:54.866Z,7.16
2022-12-19T08:41:23.358Z,7.17
2022-12-19T08:43:53.555Z,7.21
2022-12-19T08:46:21.798Z,7.23
2022-12-19T08:48:50.273Z,7.26
2022-12-19T08:51:19.453Z,7.28
2022-12-19T08:53:48.167Z,7.27
2022-12-19T08:56:20.556Z,7.29
2022-12-19T08:58:50.608Z,7.31
2022-12-19T09:01:21.128Z,7.39
2022-12-19T09:04:16.849Z,7.45
2022-12-19T09:06:38.702Z,7.49
2022-12-19T09:09:07.525Z,7.58
2022-12-19T09:11:37.596Z,7.59
2022-12-19T09:14:20.481Z,7.58
2022-12-19T09:16:49.583Z,7.61
2022-12-19T09:19:18.301Z,7.61
2022-12-19T09:21:46.472Z,7.63
2022-12-19T09:24:15.648Z,7.66
2022-12-19T09:26:44.980Z,7.69
2022-12-19T09:29:20.423Z,7.64
2022-12-19T09:31:51.801Z,7.65
2022-12-19T09:34:37.792Z,7.63
2022-12-19T09:37:16.677Z,7.60
2022-12-19T09:39:47.591Z,7.61
2022-12-19T09:43:02.369Z,7.67
2022-12-19T09:46:22.880Z,7.69
2022-12-19T09:48:56.377Z,7.73
2022-12-19T09:51:34.526Z,7.80
2022-12-19T09:54:29.149Z,7.87
2022-12-19T09:57:05.204Z,7.92
2022-12-19T09:59:49.619Z,8.01
2022-12-19T10:02:48.521Z,8.09
2022-12-19T10:06:25.886Z,8.11
2022-12-19T10:08:42.638Z,8.17
2022-12-19T10:12:46.144Z,8.19
2022-12-19T10:15:15.589Z,8.25
2022-12-19T10:18:17.847Z,8.28
2022-12-19T10:21:14.240Z,8.33
2022-12-19T10:23:57.379Z,8.39
2022-12-19T10:26:53.895Z,8.45
2022-12-19T10:30:09.944Z,8.45
2022-12-19T10:33:02.429Z,8.47
2022-12-19T10:35:44.803Z,8.53
2022-12-19T10:38:27.491Z,8.60
2022-12-19T10:41:30.421Z,8.65
2022-12-19T10:44:10.264Z,8.68
2022-12-19T10:46:46.338Z,8.68
2022-12-19T10:49:22.623Z,8.76
2022-12-19T10:51:56.213Z,8.84
2022-12-19T10:54:33.365Z,8.85
2022-12-19T10:57:29.396Z,8.84
2022-12-19T11:00:20.200Z,8.84
2022-12-19T11:02:52.206Z,8.87
2022-12-19T11:05:47.525Z,8.92
2022-12-19T11:08:34.308Z,8.88
2022-12-19T11:12:37.929Z,8.88
2022-12-19T11:18:30.281Z,8.91
2022-12-19T11:23:21.207Z,8.93
2022-12-19T11:29:30.477Z,9.04
2022-12-19T11:30:38.373Z,9.13
2022-12-19T11:30:41.736Z,9.10
2022-12-19T11:30:48.667Z,9.02
2022-12-19T11:32:33.991Z,9.12
2022-12-19T11:34:24.617Z,9.21
2022-12-19T11:37:21.420Z,9.27
2022-12-19T11:40:21.346Z,9.29
2022-12-19T11:43:41.881Z,9.28
2022-12-19T11:46:21.729Z,9.30
2022-12-19T11:49:02.471Z,9.32
2022-12-19T11:52:29.801Z,9.38
2022-12-19T11:55:19.453Z,9.39
2022-12-19T11:57:48.478Z,9.42
2022-12-19T12:00:21.059Z,9.41
2022-12-19T12:03:13.632Z,9.44
2022-12-19T12:05:47.431Z,9.42
2022-12-19T12:11:34.920Z,9.43
2022-12-19T12:21:40.419Z,9.42
2022-12-19T12:25:37.144Z,9.45
2022-12-19T12:29:54.647Z,9.47
2022-12-19T12:31:27.090Z,9.47
2022-12-19T12:31:44.956Z,9.59
2022-12-19T12:31:46.195Z,9.55
2022-12-19T12:32:02.757Z,9.54
2022-12-19T12:35:56.311Z,9.68
2022-12-19T12:38:10.984Z,9.69
2022-12-19T12:40:11.532Z,9.71
2022-12-19T12:43:09.105Z,9.72
2022-12-19T12:45:47.457Z,9.71
2022-12-19T12:48:40.976Z,9.78
2022-12-19T12:51:10.970Z,9.77
2022-12-19T12:53:44.216Z,9.81
2022-12-19T12:56:16.439Z,9.83
2022-12-19T12:58:46.838Z,9.86
2022-12-19T13:01:29.636Z,9.91
2022-12-19T13:04:19.064Z,9.90
2022-12-19T13:06:50.069Z,9.93
2022-12-19T13:09:17.991Z,9.93
2022-12-19T13:12:46.547Z,9.95
2022-12-19T13:15:32.608Z,9.94
2022-12-19T13:18:14.661Z,9.91
2022-12-19T13:20:48.523Z,9.93
2022-12-19T13:23:38.215Z,9.96
2022-12-19T13:26:41.338Z,9.96
2022-12-19T13:29:51.858Z,9.95
2022-12-19T13:32:22.580Z,9.94
2022-12-19T13:35:23.631Z,9.91
2022-12-19T13:39:54.016Z,9.91
2022-12-19T13:41:33.775Z,9.89
2022-12-19T13:44:04.367Z,9.76
2022-12-19T13:46:45.921Z,9.86
2022-12-19T13:49:34.242Z,9.88
2022-12-19T13:52:05.340Z,9.91
2022-12-19T13:54:52.076Z,9.91
2022-12-19T13:57:30.464Z,9.87
2022-12-19T14:00:08.152Z,9.90
2022-12-19T14:02:50.965Z,9.91
2022-12-19T14:06:16.328Z,9.90
2022-12-19T14:08:28.406Z,9.85
2022-12-19T14:11:29.519Z,9.87
2022-12-19T14:14:27.847Z,9.86
2022-12-19T14:17:12.562Z,9.83
2022-12-19T14:19:45.610Z,9.84
2022-12-19T14:22:26.918Z,9.83
2022-12-19T14:26:48.064Z,9.83
2022-12-19T14:28:18.954Z,9.79
2022-12-19T14:31:05.784Z,9.80
2022-12-19T14:33:54.194Z,9.79
2022-12-19T14:36:31.465Z,9.77
2022-12-19T14:39:23.670Z,9.73
2022-12-19T14:42:11.394Z,9.69
2022-12-19T14:51:42.990Z,9.71
2022-12-19T14:54:11.821Z,9.67
2022-12-19T14:54:13.638Z,9.69
2022-12-19T14:54:48.411Z,9.62
2022-12-19T14:56:52.096Z,9.63
2022-12-19T14:59:36.371Z,9.61
2022-12-19T15:02:07.522Z,9.60
2022-12-19T15:05:00.512Z,9.58
2022-12-19T15:07:32.289Z,9.55
2022-12-19T15:11:05.088Z,9.50
2022-12-19T15:14:57.778Z,9.46
2022-12-19T15:16:34.981Z,9.37
2022-12-19T15:19:05.685Z,9.34
2022-12-19T15:21:33.546Z,9.29
2022-12-19T15:24:01.578Z,9.25
2022-12-19T15:26:34.576Z,9.27
2022-12-19T15:29:09.891Z,9.25
2022-12-19T15:31:41.049Z,9.22
2022-12-19T15:34:37.214Z,9.18
2022-12-19T15:37:13.943Z,9.13
2022-12-19T15:39:43.092Z,9.10
2022-12-19T15:42:23.528Z,9.11
2022-12-19T15:44:53.508Z,9.05
2022-12-19T15:47:32.991Z,9.09
2022-12-19T15:50:14.165Z,9.05
2022-12-19T15:52:41.991Z,9.00
2022-12-19T15:55:15.609Z,9.02
2022-12-19T15:57:55.873Z,8.96
2022-12-19T16:00:28.848Z,8.94
2022-12-19T16:03:23.195Z,8.96
2022-12-19T16:05:45.872Z,8.92
2022-12-19T16:08:26.099Z,8.89
2022-12-19T16:11:01.411Z,8.80
2022-12-19T16:13:36.692Z,8.74
2022-12-19T16:16:11.006Z,8.68
2022-12-19T16:18:47.279Z,8.61
2022-12-19T16:21:31.472Z,8.63
2022-12-19T16:24:02.904Z,8.57
2022-12-19T16:26:36.897Z,8.51
2022-12-19T16:29:06.499Z,8.50
2022-12-19T16:31:34.526Z,8.52
2022-12-19T16:34:03.773Z,8.48
2022-12-19T16:36:31.699Z,8.47
2022-12-19T16:38:59.408Z,8.45
2022-12-19T16:41:28.414Z,8.42
2022-12-19T16:43:56.283Z,8.39
2022-12-19T16:46:30.589Z,8.38
2022-12-19T16:48:58.827Z,8.38
2022-12-19T16:51:28.621Z,8.38
2022-12-19T16:54:00.933Z,8.39
2022-12-19T16:56:47.973Z,8.41
2022-12-19T16:59:34.102Z,8.36
2022-12-19T17:02:15.002Z,8.32
2022-12-19T17:04:42.913Z,8.25
2022-12-19T17:07:11.957Z,8.30
2022-12-19T17:09:39.941Z,8.28
2022-12-19T17:12:18.504Z,8.33
2022-12-19T17:14:47.367Z,8.31
2022-12-19T17:17:16.245Z,8.35
2022-12-19T17:19:45.885Z,8.35
2022-12-19T17:22:19.246Z,8.32
2022-12-19T17:24:49.287Z,8.27
2022-12-19T17:27:19.178Z,8.23
2022-12-19T17:29:47.195Z,8.16
2022-12-19T17:32:23.584Z,8.12
2022-12-19T17:34:52.929Z,8.04
2022-12-19T17:37:21.127Z,7.96
2022-12-19T17:39:49.092Z,7.88
2022-12-19T17:42:23.197Z,7.88
2022-12-19T17:44:51.992Z,7.85
2022-12-19T17:47:21.065Z,7.87
2022-12-19T17:49:49.668Z,7.86
2022-12-19T17:52:21.714Z,7.86
2022-12-19T17:54:49.504Z,7.83
2022-12-19T17:57:18.335Z,7.87
2022-12-19T17:59:46.695Z,7.91
2022-12-19T18:02:22.793Z,7.92
2022-12-19T18:04:52.235Z,7.91
2022-12-19T18:07:20.560Z,7.92
2022-12-19T18:09:48.474Z,8.01
2022-12-19T18:12:16.656Z,8.06
2022-12-19T18:14:44.552Z,8.13
2022-12-19T18:17:19.423Z,8.14
2022-12-19T18:19:47.445Z,8.16
2022-12-19T18:22:15.586Z,8.17
2022-12-19T18:24:44.028Z,8.17
2022-12-19T18:27:12.801Z,8.18
2022-12-19T18:29:41.255Z,8.21
2022-12-19T18:32:19.223Z,8.23
2022-12-19T18:34:47.172Z,8.25
2022-12-19T18:37:16.805Z,8.30
2022-12-19T18:39:45.046Z,8.28
2022-12-19T18:42:21.182Z,8.29
2022-12-19T18:44:50.866Z,8.26
2022-12-19T18:47:23.132Z,8.31
2022-12-19T18:49:52.138Z,8.30
2022-12-19T18:52:20.603Z,8.28
2022-12-19T18:54:48.366Z,8.23
2022-12-19T18:57:16.628Z,8.22
2022-12-19T18:59:44.879Z,8.17
2022-12-19T19:02:26.760Z,8.21
2022-12-19T19:04:55.833Z,8.16
2022-12-19T19:07:24.305Z,8.16
2022-12-19T19:09:52.242Z,8.15
2022-12-19T19:12:48.664Z,8.11
2022-12-19T19:15:22.230Z,8.07
2022-12-19T19:17:56.565Z,8.06
2022-12-19T19:20:27.428Z,8.06
2022-12-19T19:22:57.313Z,7.99
2022-12-19T19:25:25.908Z,8.06
2022-12-19T19:27:56.316Z,8.10
2022-12-19T19:30:43.238Z,8.13
2022-12-19T19:33:22.397Z,8.12
2022-12-19T19:36:11.276Z,8.12
2022-12-19T19:38:47.596Z,8.18
2022-12-19T19:41:20.290Z,8.24
2022-12-19T19:43:49.200Z,8.16
2022-12-19T19:46:18.060Z,8.27
2022-12-19T19:48:46.841Z,8.23
2022-12-19T19:51:19.126Z,8.22
2022-12-19T19:53:48.655Z,8.24
2022-12-19T19:56:18.098Z,8.25
2022-12-19T19:58:58.606Z,8.21
2022-12-19T20:01:28.180Z,8.14
2022-12-19T20:03:56.990Z,8.16
2022-12-19T20:06:25.673Z,8.18
2022-12-19T20:08:53.970Z,8.21
2022-12-19T20:11:25.401Z,8.24
2022-12-19T20:13:54.080Z,8.10
2022-12-19T20:16:23.336Z,8.18
2022-12-19T20:18:53.572Z,8.25
2022-12-19T20:21:24.999Z,8.29
2022-12-19T20:23:54.106Z,8.14
2022-12-19T20:26:22.675Z,8.20
2022-12-19T20:28:52.115Z,8.28
2022-12-19T20:31:24.070Z,8.32
2022-12-19T20:33:55.852Z,8.27
2022-12-19T20:36:27.143Z,8.35
2022-12-19T20:38:55.432Z,8.32
2022-12-19T20:41:24.083Z,8.35
2022-12-19T20:43:53.298Z,8.37
2022-12-19T20:46:24.362Z,8.42
2022-12-19T20:48:54.083Z,8.43
2022-12-19T20:51:23.551Z,8.45
2022-12-19T20:53:55.154Z,8.49
2022-12-19T20:56:23.541Z,8.34
2022-12-19T20:58:52.355Z,8.43
2022-12-19T21:01:23.705Z,8.50
2022-12-19T21:03:52.640Z,8.49
2022-12-19T21:06:25.289Z,8.54
2022-12-19T21:08:57.946Z,8.53
2022-12-19T21:11:26.840Z,8.53
2022-12-19T21:13:55.428Z,8.53
2022-12-19T21:16:24.770Z,8.57
2022-12-19T21:18:53.107Z,8.57
2022-12-19T21:21:26.533Z,8.60
2022-12-19T21:23:55.814Z,8.59
2022-12-19T21:26:26.162Z,8.61
2022-12-19T21:28:58.018Z,8.60
2022-12-19T21:31:30.025Z,8.63
2022-12-19T21:34:00.761Z,8.63
2022-12-19T21:36:30.567Z,8.60
2022-12-19T21:39:02.107Z,8.61
2022-12-19T21:41:31.729Z,8.58
2022-12-19T21:44:00.705Z,8.61
2022-12-19T21:46:33.262Z,8.63
2022-12-19T21:49:03.315Z,8.63
2022-12-19T21:51:32.658Z,8.65
2022-12-19T21:54:04.626Z,8.66
2022-12-19T21:56:39.174Z,8.67
2022-12-19T21:59:13.226Z,8.67
2022-12-19T22:01:43.118Z,8.65
2022-12-19T22:04:23.831Z,8.71
2022-12-19T22:06:52.241Z,8.64
2022-12-19T22:09:23.040Z,8.66
2022-12-19T22:11:51.747Z,8.61
2022-12-19T22:14:19.940Z,8.65
2022-12-19T22:16:48.096Z,8.69
2022-12-19T22:19:19.022Z,8.71
2022-12-19T22:21:48.254Z,8.67
2022-12-19T22:24:17.435Z,8.72
2022-12-19T22:26:45.601Z,8.74
2022-12-19T22:29:17.449Z,8.78
2022-12-19T22:31:46.762Z,8.81
2022-12-19T22:34:18.676Z,8.83
2022-12-19T22:36:48.167Z,8.83
2022-12-19T22:39:20.800Z,8.84
2022-12-19T22:41:49.444Z,8.86
2022-12-19T22:44:24.784Z,8.89
2022-12-19T22:46:53.079Z,8.86
2022-12-19T22:49:21.171Z,8.88
2022-12-19T22:51:49.361Z,8.90
2022-12-19T22:54:17.469Z,8.91
2022-12-19T22:56:51.407Z,8.91
2022-12-19T22:59:19.779Z,8.92
2022-12-19T23:01:48.081Z,8.96
2022-12-19T23:04:17.463Z,8.97
2022-12-19T23:06:45.967Z,9.00
2022-12-19T23:09:17.741Z,9.03
2022-12-19T23:11:48.400Z,8.90
2022-12-19T23:14:18.401Z,8.97
2022-12-19T23:16:47.026Z,9.02
2022-12-19T23:19:16.158Z,9.10
2022-12-19T23:21:44.304Z,9.13
2022-12-19T23:24:13.126Z,9.16
2022-12-19T23:26:41.951Z,9.19
2022-12-19T23:29:13.870Z,9.24
2022-12-19T23:31:46.392Z,9.23
2022-12-19T23:34:15.863Z,9.21
2022-12-19T23:39:32.084Z,9.17
2022-12-19T23:41:59.991Z,9.18
2022-12-19T23:44:28.038Z,9.24
2022-12-19T23:47:02.636Z,9.24
2022-12-19T23:49:33.344Z,9.24
2022-12-19T23:52:01.106Z,9.23
2022-12-19T23:54:29.053Z,9.21
2022-12-19T23:56:56.874Z,9.21
2022-12-19T23:59:24.615Z,9.17
